sensor_id;sensor_type;location;lat;lon;timestamp;pressure;altitude;pressure_sealevel;temperature;humidity
63343;BME280;49465;57.664;39.686;2023-02-21T00:00:36;98480.84;;;-9.45;44.18
63343;BME280;49465;57.664;39.686;2023-02-21T00:03:23;98485.13;;;-9.49;43.93
63343;BME280;49465;57.664;39.686;2023-02-21T00:06:14;98482.63;;;-9.50;43.97
63343;BME280;49465;57.664;39.686;2023-02-21T00:09:01;98478.41;;;-9.53;43.95
63343;BME280;49465;57.664;39.686;2023-02-21T00:11:49;98471.69;;;-9.57;44.64
63343;BME280;49465;57.664;39.686;2023-02-21T00:14:45;98469.16;;;-9.59;43.91
63343;BME280;49465;57.664;39.686;2023-02-21T00:17:33;98467.53;;;-9.63;44.17
63343;BME280;49465;57.664;39.686;2023-02-21T00:20:17;98466.72;;;-9.65;43.60
63343;BME280;49465;57.664;39.686;2023-02-21T00:23:02;98476.88;;;-9.66;44.10
63343;BME280;49465;57.664;39.686;2023-02-21T00:25:47;98476.91;;;-9.68;43.93
63343;BME280;49465;57.664;39.686;2023-02-21T00:28:32;98465.97;;;-9.71;44.41
63343;BME280;49465;57.664;39.686;2023-02-21T00:31:25;98468.50;;;-9.75;44.42
63343;BME280;49465;57.664;39.686;2023-02-21T00:34:13;98464.34;;;-9.79;43.81
63343;BME280;49465;57.664;39.686;2023-02-21T00:37:01;98465.22;;;-9.80;44.34
63343;BME280;49465;57.664;39.686;2023-02-21T00:39:48;98467.78;;;-9.83;43.90
63343;BME280;49465;57.664;39.686;2023-02-21T00:42:36;98462.69;;;-9.80;43.71
63343;BME280;49465;57.664;39.686;2023-02-21T00:45:24;98466.94;;;-9.83;43.84
63343;BME280;49465;57.664;39.686;2023-02-21T00:48:08;98460.19;;;-9.86;44.10
63343;BME280;49465;57.664;39.686;2023-02-21T00:50:53;98462.75;;;-9.87;43.77
63343;BME280;49465;57.664;39.686;2023-02-21T00:53:37;98464.47;;;-9.89;43.83
63343;BME280;49465;57.664;39.686;2023-02-21T00:56:22;98462.84;;;-9.95;43.76
63343;BME280;49465;57.664;39.686;2023-02-21T00:59:07;98456.94;;;-9.97;43.92
63343;BME280;49465;57.664;39.686;2023-02-21T01:01:51;98453.59;;;-10.01;43.87
63343;BME280;49465;57.664;39.686;2023-02-21T01:04:38;98452.72;;;-10.00;44.31
63343;BME280;49465;57.664;39.686;2023-02-21T01:07:26;98448.59;;;-10.05;43.84
63343;BME280;49465;57.664;39.686;2023-02-21T01:10:11;98451.13;;;-10.07;44.30
63343;BME280;49465;57.664;39.686;2023-02-21T01:12:56;98446.88;;;-10.03;44.73
63343;BME280;49465;57.664;39.686;2023-02-21T01:15:43;98446.84;;;-10.02;43.98
63343;BME280;49465;57.664;39.686;2023-02-21T01:18:29;98451.94;;;-10.03;43.76
63343;BME280;49465;57.664;39.686;2023-02-21T01:21:15;98446.00;;;-10.04;44.29
63343;BME280;49465;57.664;39.686;2023-02-21T01:24:04;98445.19;;;-10.04;44.45
63343;BME280;49465;57.664;39.686;2023-02-21T01:26:49;98444.31;;;-10.02;43.65
63343;BME280;49465;57.664;39.686;2023-02-21T01:29:36;98446.06;;;-10.05;44.17
63343;BME280;49465;57.664;39.686;2023-02-21T01:32:21;98445.25;;;-10.10;44.16
63343;BME280;49465;57.664;39.686;2023-02-21T01:35:06;98441.00;;;-10.10;43.77
63343;BME280;49465;57.664;39.686;2023-02-21T01:37:53;98439.34;;;-10.11;44.16
63343;BME280;49465;57.664;39.686;2023-02-21T01:40:39;98447.78;;;-10.12;44.08
63343;BME280;49465;57.664;39.686;2023-02-21T01:43:28;98446.16;;;-10.16;43.58
63343;BME280;49465;57.664;39.686;2023-02-21T01:46:16;98445.34;;;-10.18;44.37
63343;BME280;49465;57.664;39.686;2023-02-21T01:49:10;98442.84;;;-10.23;44.22
63343;BME280;49465;57.664;39.686;2023-02-21T01:52:01;98440.34;;;-10.26;44.39
63343;BME280;49465;57.664;39.686;2023-02-21T01:54:50;98448.81;;;-10.27;44.59
63343;BME280;49465;57.664;39.686;2023-02-21T01:57:36;98448.88;;;-10.30;43.97
63343;BME280;49465;57.664;39.686;2023-02-21T02:00:23;98448.88;;;-10.31;43.80
63343;BME280;49465;57.664;39.686;2023-02-21T02:03:11;98456.47;;;-10.31;44.10
63343;BME280;49465;57.664;39.686;2023-02-21T02:06:05;98456.53;;;-10.35;44.19
63343;BME280;49465;57.664;39.686;2023-02-21T02:08:53;98463.25;;;-10.33;44.18
63343;BME280;49465;57.664;39.686;2023-02-21T02:38:15;98454.19;;;-10.61;44.04
63343;BME280;49465;57.664;39.686;2023-02-21T02:43:47;98458.44;;;-10.61;43.89
63343;BME280;49465;57.664;39.686;2023-02-21T02:46:28;98457.59;;;-10.62;43.35
63343;BME280;49465;57.664;39.686;2023-02-21T02:49:09;98463.50;;;-10.61;44.14
63343;BME280;49465;57.664;39.686;2023-02-21T02:51:46;98450.84;;;-10.64;43.77
63343;BME280;49465;57.664;39.686;2023-02-21T02:54:20;98457.63;;;-10.66;43.87
63343;BME280;49465;57.664;39.686;2023-02-21T02:56:55;98446.66;;;-10.68;43.94
63343;BME280;49465;57.664;39.686;2023-02-21T02:59:28;98448.38;;;-10.70;44.07
63343;BME280;49465;57.664;39.686;2023-02-21T03:02:30;98455.16;;;-10.74;43.58
63343;BME280;49465;57.664;39.686;2023-02-21T03:05:09;98445.06;;;-10.76;44.21
63343;BME280;49465;57.664;39.686;2023-02-21T03:07:54;98450.13;;;-10.79;43.73
63343;BME280;49465;57.664;39.686;2023-02-21T03:16:17;98441.75;;;-10.87;43.90
63343;BME280;49465;57.664;39.686;2023-02-21T03:18:57;98441.75;;;-10.88;44.02
63343;BME280;49465;57.664;39.686;2023-02-21T03:21:40;98442.63;;;-10.89;43.81
63343;BME280;49465;57.664;39.686;2023-02-21T03:24:11;98445.19;;;-10.94;44.13
63343;BME280;49465;57.664;39.686;2023-02-21T03:26:47;98431.69;;;-10.98;43.54
63343;BME280;49465;57.664;39.686;2023-02-21T03:29:20;98432.56;;;-10.99;44.20
63343;BME280;49465;57.664;39.686;2023-02-21T03:31:59;98430.88;;;-10.97;43.35
63343;BME280;49465;57.664;39.686;2023-02-21T03:34:39;98430.88;;;-10.98;43.84
63343;BME280;49465;57.664;39.686;2023-02-21T03:37:32;98430.09;;;-11.03;44.05
63343;BME280;49465;57.664;39.686;2023-02-21T03:40:04;98424.19;;;-11.07;43.53
63343;BME280;49465;57.664;39.686;2023-02-21T03:42:37;98420.84;;;-11.09;44.13
63343;BME280;49465;57.664;39.686;2023-02-21T03:45:09;98429.28;;;-11.10;43.83
63343;BME280;49465;57.664;39.686;2023-02-21T03:47:38;98422.50;;;-11.09;43.53
63343;BME280;49465;57.664;39.686;2023-02-21T03:50:07;98426.72;;;-11.07;43.60
63343;BME280;49465;57.664;39.686;2023-02-21T03:52:42;98417.47;;;-11.11;44.13
63343;BME280;49465;57.664;39.686;2023-02-21T03:55:22;98421.72;;;-11.15;44.24
63343;BME280;49465;57.664;39.686;2023-02-21T03:57:53;98422.59;;;-11.19;43.88
63343;BME280;49465;57.664;39.686;2023-02-21T04:00:25;98424.25;;;-11.16;43.90
63343;BME280;49465;57.664;39.686;2023-02-21T04:03:03;98421.72;;;-11.15;43.61
63343;BME280;49465;57.664;39.686;2023-02-21T04:05:37;98425.13;;;-11.19;44.16
63343;BME280;49465;57.664;39.686;2023-02-21T04:08:10;98414.97;;;-11.17;44.03
63343;BME280;49465;57.664;39.686;2023-02-21T04:10:43;98414.97;;;-11.16;44.04
63343;BME280;49465;57.664;39.686;2023-02-21T04:13:09;98413.31;;;-11.18;44.21
63343;BME280;49465;57.664;39.686;2023-02-21T04:15:42;98415.00;;;-11.22;44.26
63343;BME280;49465;57.664;39.686;2023-02-21T04:18:11;98404.06;;;-11.22;43.93
63343;BME280;49465;57.664;39.686;2023-02-21T04:20:43;98410.78;;;-11.18;44.08
63343;BME280;49465;57.664;39.686;2023-02-21T04:23:24;98411.66;;;-11.22;44.07
63343;BME280;49465;57.664;39.686;2023-02-21T04:26:02;98415.88;;;-11.29;43.17
63343;BME280;49465;57.664;39.686;2023-02-21T04:28:40;98418.47;;;-11.32;43.48
63343;BME280;49465;57.664;39.686;2023-02-21T04:31:09;98423.56;;;-11.37;43.74
63343;BME280;49465;57.664;39.686;2023-02-21T04:33:38;98414.25;;;-11.35;43.93
63343;BME280;49465;57.664;39.686;2023-02-21T04:36:05;98412.53;;;-11.31;43.74
63343;BME280;49465;57.664;39.686;2023-02-21T04:38:37;98418.47;;;-11.35;44.15
63343;BME280;49465;57.664;39.686;2023-02-21T04:41:09;98390.72;;;-11.50;43.66
63343;BME280;49465;57.664;39.686;2023-02-21T04:43:41;98421.00;;;-11.34;43.50
63343;BME280;49465;57.664;39.686;2023-02-21T04:46:14;98426.09;;;-11.37;44.01
63343;BME280;49465;57.664;39.686;2023-02-21T04:48:49;98434.50;;;-11.36;43.61
63343;BME280;49465;57.664;39.686;2023-02-21T04:51:24;98424.38;;;-11.35;43.21
63343;BME280;49465;57.664;39.686;2023-02-21T04:53:54;98430.28;;;-11.36;43.41
63343;BME280;49465;57.664;39.686;2023-02-21T04:56:29;98437.03;;;-11.39;43.33
63343;BME280;49465;57.664;39.686;2023-02-21T04:59:02;98437.91;;;-11.42;43.67
63343;BME280;49465;57.664;39.686;2023-02-21T05:01:34;98435.38;;;-11.43;43.72
63343;BME280;49465;57.664;39.686;2023-02-21T05:04:00;98426.97;;;-11.45;43.73
63343;BME280;49465;57.664;39.686;2023-02-21T05:06:36;98426.13;;;-11.47;43.34
63343;BME280;49465;57.664;39.686;2023-02-21T05:09:08;98426.13;;;-11.50;43.33
63343;BME280;49465;57.664;39.686;2023-02-21T05:11:45;98427.84;;;-11.52;43.42
63343;BME280;49465;57.664;39.686;2023-02-21T05:14:19;98427.03;;;-11.58;43.70
63343;BME280;49465;57.664;39.686;2023-02-21T05:16:56;98432.13;;;-11.64;43.96
63343;BME280;49465;57.664;39.686;2023-02-21T05:19:28;98428.78;;;-11.69;43.69
63343;BME280;49465;57.664;39.686;2023-02-21T05:22:02;98424.59;;;-11.75;43.69
63343;BME280;49465;57.664;39.686;2023-02-21T05:24:31;98424.53;;;-11.68;43.99
63343;BME280;49465;57.664;39.686;2023-02-21T05:27:01;98426.25;;;-11.66;44.19
63343;BME280;49465;57.664;39.686;2023-02-21T05:29:27;98423.72;;;-11.69;43.23
63343;BME280;49465;57.664;39.686;2023-02-21T05:31:59;98427.91;;;-11.63;43.19
63343;BME280;49465;57.664;39.686;2023-02-21T05:34:28;98421.16;;;-11.63;43.89
63343;BME280;49465;57.664;39.686;2023-02-21T05:36:58;98423.69;;;-11.63;43.80
63343;BME280;49465;57.664;39.686;2023-02-21T05:39:29;98418.63;;;-11.63;43.50
63343;BME280;49465;57.664;39.686;2023-02-21T05:41:58;98426.22;;;-11.64;43.74
63343;BME280;49465;57.664;39.686;2023-02-21T05:44:28;98422.03;;;-11.68;44.41
63343;BME280;49465;57.664;39.686;2023-02-21T05:46:59;98425.41;;;-11.69;44.14
63343;BME280;49465;57.664;39.686;2023-02-21T05:49:32;98420.31;;;-11.62;44.20
63343;BME280;49465;57.664;39.686;2023-02-21T05:52:00;98422.81;;;-11.59;44.07
63343;BME280;49465;57.664;39.686;2023-02-21T05:54:27;98427.06;;;-11.65;44.48
63343;BME280;49465;57.664;39.686;2023-02-21T05:56:56;98425.31;;;-11.52;44.29
63343;BME280;49465;57.664;39.686;2023-02-21T05:59:23;98422.78;;;-11.48;44.01
63343;BME280;49465;57.664;39.686;2023-02-21T06:01:52;98425.25;;;-11.43;44.54
63343;BME280;49465;57.664;39.686;2023-02-21T06:04:19;98415.09;;;-11.34;44.46
63343;BME280;49465;57.664;39.686;2023-02-21T06:06:45;98424.34;;;-11.30;44.61
63343;BME280;49465;57.664;39.686;2023-02-21T06:09:17;98415.03;;;-11.25;43.97
63343;BME280;49465;57.664;39.686;2023-02-21T06:11:47;98420.03;;;-11.16;44.65
63343;BME280;49465;57.664;39.686;2023-02-21T06:14:20;98420.84;;;-11.09;44.40
63343;BME280;49465;57.664;39.686;2023-02-21T06:16:50;98415.72;;;-11.03;44.52
63343;BME280;49465;57.664;39.686;2023-02-21T06:19:21;98428.41;;;-11.07;44.04
63343;BME280;49465;57.664;39.686;2023-02-21T06:21:50;98425.84;;;-11.01;44.21
63343;BME280;49465;57.664;39.686;2023-02-21T06:24:17;98424.09;;;-10.95;44.56
63343;BME280;49465;57.664;39.686;2023-02-21T06:26:43;98423.16;;;-10.86;44.79
63343;BME280;49465;57.664;39.686;2023-02-21T06:29:10;98420.56;;;-10.78;45.52
63343;BME280;49465;57.664;39.686;2023-02-21T06:31:39;98415.56;;;-10.84;45.28
63343;BME280;49465;57.664;39.686;2023-02-21T06:34:08;98419.75;;;-10.77;45.71
63343;BME280;49465;57.664;39.686;2023-02-21T06:36:37;98416.19;;;-10.56;46.06
63343;BME280;49465;57.664;39.686;2023-02-21T06:39:05;98420.44;;;-10.58;46.05
63343;BME280;49465;57.664;39.686;2023-02-21T06:41:33;98427.84;;;-10.40;46.08
63343;BME280;49465;57.664;39.686;2023-02-21T06:44:07;98422.53;;;-10.21;45.29
63343;BME280;49465;57.664;39.686;2023-02-21T06:46:33;98425.81;;;-10.10;45.35
63343;BME280;49465;57.664;39.686;2023-02-21T06:49:11;98429.03;;;-9.96;45.82
63343;BME280;49465;57.664;39.686;2023-02-21T06:51:41;98422.19;;;-9.87;45.42
63343;BME280;49465;57.664;39.686;2023-02-21T06:54:08;98422.91;;;-9.78;45.22
63343;BME280;49465;57.664;39.686;2023-02-21T06:56:35;98421.94;;;-9.67;45.67
63343;BME280;49465;57.664;39.686;2023-02-21T06:59:02;98423.50;;;-9.59;45.81
63343;BME280;49465;57.664;39.686;2023-02-21T07:01:29;98417.47;;;-9.48;45.08
63343;BME280;49465;57.664;39.686;2023-02-21T07:03:58;98421.59;;;-9.43;45.56
63343;BME280;49465;57.664;39.686;2023-02-21T07:06:33;98413.91;;;-9.37;46.22
63343;BME280;49465;57.664;39.686;2023-02-21T07:09:00;98414.63;;;-9.27;45.82
63343;BME280;49465;57.664;39.686;2023-02-21T07:11:27;98413.63;;;-9.18;46.89
63343;BME280;49465;57.664;39.686;2023-02-21T07:13:56;98421.28;;;-9.21;47.34
63343;BME280;49465;57.664;39.686;2023-02-21T07:16:28;98424.53;;;-9.11;47.24
63343;BME280;49465;57.664;39.686;2023-02-21T07:18:55;98422.63;;;-8.96;47.53
63343;BME280;49465;57.664;39.686;2023-02-21T07:21:22;98423.03;;;-8.70;47.64
63343;BME280;49465;57.664;39.686;2023-02-21T07:23:49;98427.09;;;-8.59;47.60
63343;BME280;49465;57.664;39.686;2023-02-21T07:26:15;98421.75;;;-8.45;47.45
63343;BME280;49465;57.664;39.686;2023-02-21T07:28:42;98422.47;;;-8.38;47.15
63343;BME280;49465;57.664;39.686;2023-02-21T07:31:11;98426.50;;;-8.26;46.56
63343;BME280;49465;57.664;39.686;2023-02-21T07:33:40;98417.94;;;-8.22;47.00
63343;BME280;49465;57.664;39.686;2023-02-21T07:36:07;98420.63;;;-8.30;46.86
63343;BME280;49465;57.664;39.686;2023-02-21T07:38:36;98419.72;;;-8.27;47.78
63343;BME280;49465;57.664;39.686;2023-02-21T07:41:08;98417.16;;;-8.26;47.38
63343;BME280;49465;57.664;39.686;2023-02-21T07:43:34;98412.88;;;-8.22;47.46
63343;BME280;49465;57.664;39.686;2023-02-21T07:46:08;98411.81;;;-8.12;47.86
63343;BME280;49465;57.664;39.686;2023-02-21T07:48:42;98418.75;;;-8.20;48.74
63343;BME280;49465;57.664;39.686;2023-02-21T07:51:12;98416.75;;;-8.03;47.91
63343;BME280;49465;57.664;39.686;2023-02-21T07:53:40;98420.78;;;-7.92;48.07
63343;BME280;49465;57.664;39.686;2023-02-21T07:56:14;98423.28;;;-7.89;48.19
63343;BME280;49465;57.664;39.686;2023-02-21T07:58:41;98423.97;;;-7.83;47.89
63343;BME280;49465;57.664;39.686;2023-02-21T08:01:07;98431.47;;;-7.75;48.33
63343;BME280;49465;57.664;39.686;2023-02-21T08:03:39;98435.50;;;-7.65;47.77
63343;BME280;49465;57.664;39.686;2023-02-21T08:06:08;98435.44;;;-7.62;48.19
63343;BME280;49465;57.664;39.686;2023-02-21T08:08:35;98437.31;;;-7.70;48.26
63343;BME280;49465;57.664;39.686;2023-02-21T08:11:01;98437.91;;;-7.59;48.30
63343;BME280;49465;57.664;39.686;2023-02-21T08:13:28;98441.16;;;-7.50;47.80
63343;BME280;49465;57.664;39.686;2023-02-21T08:15:54;98437.81;;;-7.52;48.54
63343;BME280;49465;57.664;39.686;2023-02-21T08:18:27;98438.44;;;-7.43;48.44
63343;BME280;49465;57.664;39.686;2023-02-21T08:20:59;98439.03;;;-7.31;47.35
63343;BME280;49465;57.664;39.686;2023-02-21T08:23:25;98440.81;;;-7.35;48.23
63343;BME280;49465;57.664;39.686;2023-02-21T08:25:52;98437.69;;;-7.48;48.44
63343;BME280;49465;57.664;39.686;2023-02-21T08:28:18;98439.16;;;-7.36;48.34
63343;BME280;49465;57.664;39.686;2023-02-21T08:30:45;98432.78;;;-7.17;48.08
63343;BME280;49465;57.664;39.686;2023-02-21T08:33:11;98430.06;;;-7.09;47.58
63343;BME280;49465;57.664;39.686;2023-02-21T08:35:40;98426.78;;;-7.14;47.69
63343;BME280;49465;57.664;39.686;2023-02-21T08:38:06;98432.63;;;-7.10;48.34
63343;BME280;49465;57.664;39.686;2023-02-21T08:40:36;98421.44;;;-7.03;48.17
63343;BME280;49465;57.664;39.686;2023-02-21T08:43:05;98427.25;;;-6.98;47.82
63343;BME280;49465;57.664;39.686;2023-02-21T08:45:34;98423.81;;;-6.96;47.86
63343;BME280;49465;57.664;39.686;2023-02-21T08:48:03;98427.97;;;-6.91;48.08
63343;BME280;49465;57.664;39.686;2023-02-21T08:50:30;98424.44;;;-6.86;47.79
63343;BME280;49465;57.664;39.686;2023-02-21T08:53:01;98422.63;;;-6.82;48.04
63343;BME280;49465;57.664;39.686;2023-02-21T08:55:31;98423.69;;;-6.91;48.17
63343;BME280;49465;57.664;39.686;2023-02-21T08:57:57;98415.16;;;-6.90;48.44
63343;BME280;49465;57.664;39.686;2023-02-21T09:00:27;98421.81;;;-6.83;48.06
63343;BME280;49465;57.664;39.686;2023-02-21T09:03:01;98419.53;;;-6.93;49.00
63343;BME280;49465;57.664;39.686;2023-02-21T09:05:31;98423.34;;;-6.76;48.37
63343;BME280;49465;57.664;39.686;2023-02-21T09:07:59;98427.66;;;-6.79;48.80
63343;BME280;49465;57.664;39.686;2023-02-21T09:10:34;98421.81;;;-6.83;48.84
63343;BME280;49465;57.664;39.686;2023-02-21T09:13:02;98422.00;;;-6.92;49.25
63343;BME280;49465;57.664;39.686;2023-02-21T09:15:33;98417.53;;;-6.82;49.13
63343;BME280;49465;57.664;39.686;2023-02-21T09:18:02;98418.81;;;-6.64;49.08
63343;BME280;49465;57.664;39.686;2023-02-21T09:20:31;98422.22;;;-6.65;48.96
63343;BME280;49465;57.664;39.686;2023-02-21T09:23:01;98424.78;;;-6.65;48.69
63343;BME280;49465;57.664;39.686;2023-02-21T09:25:30;98413.78;;;-6.67;48.90
63343;BME280;49465;57.664;39.686;2023-02-21T09:27:56;98415.34;;;-6.62;49.24
63343;BME280;49465;57.664;39.686;2023-02-21T09:30:26;98411.78;;;-6.54;48.92
63343;BME280;49465;57.664;39.686;2023-02-21T09:32:57;98418.38;;;-6.47;48.73
63343;BME280;49465;57.664;39.686;2023-02-21T09:35:26;98418.22;;;-6.41;48.61
63343;BME280;49465;57.664;39.686;2023-02-21T09:37:56;98416.38;;;-6.34;48.30
63343;BME280;49465;57.664;39.686;2023-02-21T09:40:55;98413.13;;;-6.41;48.46
63343;BME280;49465;57.664;39.686;2023-02-21T09:43:44;98418.50;;;-6.52;48.58
63343;BME280;49465;57.664;39.686;2023-02-21T09:49:38;98423.78;;;-6.58;48.83
63343;BME280;49465;57.664;39.686;2023-02-21T09:52:40;98428.91;;;-6.60;49.04
63343;BME280;49465;57.664;39.686;2023-02-21T09:55:32;98426.47;;;-6.31;48.36
63343;BME280;49465;57.664;39.686;2023-02-21T09:58:02;98425.69;;;-6.33;48.92
63343;BME280;49465;57.664;39.686;2023-02-21T10:00:36;98421.50;;;-6.36;48.66
63343;BME280;49465;57.664;39.686;2023-02-21T10:08:51;98423.63;;;-6.19;48.72
63343;BME280;49465;57.664;39.686;2023-02-21T10:11:49;98426.53;;;-6.33;48.88
63343;BME280;49465;57.664;39.686;2023-02-21T10:14:43;98430.69;;;-6.29;48.79
63343;BME280;49465;57.664;39.686;2023-02-21T10:17:25;98434.81;;;-6.25;48.50
63343;BME280;49465;57.664;39.686;2023-02-21T10:20:08;98433.31;;;-6.32;48.85
63343;BME280;49465;57.664;39.686;2023-02-21T10:22:39;98431.53;;;-6.30;49.12
63343;BME280;49465;57.664;39.686;2023-02-21T10:25:25;98433.31;;;-6.32;49.01
63343;BME280;49465;57.664;39.686;2023-02-21T10:27:54;98434.78;;;-6.23;48.76
63343;BME280;49465;57.664;39.686;2023-02-21T10:30:36;98442.19;;;-6.14;48.59
63343;BME280;49465;57.664;39.686;2023-02-21T10:33:06;98439.53;;;-6.09;48.43
63343;BME280;49465;57.664;39.686;2023-02-21T10:35:36;98433.41;;;-6.04;48.67
63343;BME280;49465;57.664;39.686;2023-02-21T10:38:16;98444.53;;;-6.06;48.84
63343;BME280;49465;57.664;39.686;2023-02-21T10:40:55;98439.81;;;-5.90;48.27
63343;BME280;49465;57.664;39.686;2023-02-21T10:43:30;98444.94;;;-5.90;48.19
63343;BME280;49465;57.664;39.686;2023-02-21T10:46:19;98443.97;;;-5.86;47.90
63343;BME280;49465;57.664;39.686;2023-02-21T10:48:52;98457.06;;;-6.64;47.99
63343;BME280;49465;57.664;39.686;2023-02-21T10:51:31;98443.63;;;-6.04;48.34
63343;BME280;49465;57.664;39.686;2023-02-21T10:54:24;98442.09;;;-5.80;47.96
63343;BME280;49465;57.664;39.686;2023-02-21T10:56:52;98442.69;;;-5.70;47.75
63343;BME280;49465;57.664;39.686;2023-02-21T10:59:28;98447.88;;;-5.73;47.77
63343;BME280;49465;57.664;39.686;2023-02-21T11:01:58;98454.66;;;-5.72;48.03
63343;BME280;49465;57.664;39.686;2023-02-21T11:04:38;98457.41;;;-5.80;48.10
63343;BME280;49465;57.664;39.686;2023-02-21T11:07:12;98452.22;;;-5.77;48.12
63343;BME280;49465;57.664;39.686;2023-02-21T11:12:27;98458.22;;;-5.78;48.26
63343;BME280;49465;57.664;39.686;2023-02-21T11:17:31;98455.81;;;-5.52;47.91
63343;BME280;49465;57.664;39.686;2023-02-21T11:22:41;98453.19;;;-5.51;48.07
63343;BME280;49465;57.664;39.686;2023-02-21T11:30:28;98458.09;;;-5.43;48.29
63343;BME280;49465;57.664;39.686;2023-02-21T11:32:57;98457.53;;;-5.23;47.84
63343;BME280;49465;57.664;39.686;2023-02-21T11:35:33;98457.13;;;-5.39;48.03
63343;BME280;49465;57.664;39.686;2023-02-21T11:38:07;98463.38;;;-5.20;48.19
63343;BME280;49465;57.664;39.686;2023-02-21T11:40:49;98453.50;;;-5.04;47.92
63343;BME280;49465;57.664;39.686;2023-02-21T11:43:28;98459.69;;;-5.09;47.62
63343;BME280;49465;57.664;39.686;2023-02-21T11:49:07;98453.50;;;-5.04;48.07
63343;BME280;49465;57.664;39.686;2023-02-21T11:51:54;98460.22;;;-5.00;48.09
63343;BME280;49465;57.664;39.686;2023-02-21T11:54:30;98461.66;;;-4.91;47.86
63343;BME280;49465;57.664;39.686;2023-02-21T11:57:03;98469.53;;;-4.97;48.01
63343;BME280;49465;57.664;39.686;2023-02-21T11:59:57;98471.63;;;-4.82;48.19
63343;BME280;49465;57.664;39.686;2023-02-21T12:05:33;98473.88;;;-4.72;48.15
63343;BME280;49465;57.664;39.686;2023-02-21T12:11:25;98462.91;;;-4.76;48.45
63343;BME280;49465;57.664;39.686;2023-02-21T12:31:31;98488.38;;;-4.20;48.02
63343;BME280;49465;57.664;39.686;2023-02-21T12:34:33;98490.22;;;-3.98;47.76
63343;BME280;49465;57.664;39.686;2023-02-21T12:37:27;98496.59;;;-4.10;47.91
63343;BME280;49465;57.664;39.686;2023-02-21T12:40:16;98494.19;;;-4.14;47.75
63343;BME280;49465;57.664;39.686;2023-02-21T12:48:36;98499.50;;;-3.94;47.55
63343;BME280;49465;57.664;39.686;2023-02-21T12:51:09;98500.28;;;-3.92;47.84
63343;BME280;49465;57.664;39.686;2023-02-21T12:53:57;98500.16;;;-3.89;47.37
63343;BME280;49465;57.664;39.686;2023-02-21T12:59:20;98509.19;;;-3.79;47.46
63343;BME280;49465;57.664;39.686;2023-02-21T13:02:25;98502.72;;;-3.89;48.06
63343;BME280;49465;57.664;39.686;2023-02-21T13:05:06;98502.19;;;-3.73;47.38
63343;BME280;49465;57.664;39.686;2023-02-21T13:10:29;98516.97;;;-3.56;47.07
63343;BME280;49465;57.664;39.686;2023-02-21T13:13:22;98517.41;;;-3.45;46.81
63343;BME280;49465;57.664;39.686;2023-02-21T13:15:55;98520.16;;;-3.50;47.04
63343;BME280;49465;57.664;39.686;2023-02-21T13:21:24;98524.28;;;-3.71;47.49
63343;BME280;49465;57.664;39.686;2023-02-21T13:24:15;98531.13;;;-3.46;47.46
63343;BME280;49465;57.664;39.686;2023-02-21T13:29:37;98530.41;;;-3.75;47.81
63343;BME280;49465;57.664;39.686;2023-02-21T13:32:09;98532.09;;;-3.74;47.38
63343;BME280;49465;57.664;39.686;2023-02-21T13:34:43;98539.63;;;-3.69;47.07
63343;BME280;49465;57.664;39.686;2023-02-21T13:37:21;98540.44;;;-3.69;47.54
63343;BME280;49465;57.664;39.686;2023-02-21T13:40:03;98543.47;;;-3.58;46.92
63343;BME280;49465;57.664;39.686;2023-02-21T13:42:42;98546.94;;;-3.59;47.22
63343;BME280;49465;57.664;39.686;2023-02-21T13:45:18;98548.00;;;-3.64;47.24
63343;BME280;49465;57.664;39.686;2023-02-21T13:58:46;98557.81;;;-3.77;47.45
63343;BME280;49465;57.664;39.686;2023-02-21T14:07:08;98563.44;;;-3.67;46.89
63343;BME280;49465;57.664;39.686;2023-02-21T14:09:38;98576.00;;;-3.85;46.70
63343;BME280;49465;57.664;39.686;2023-02-21T14:12:08;98578.50;;;-3.83;46.76
63343;BME280;49465;57.664;39.686;2023-02-21T14:14:44;98578.06;;;-3.96;46.97
63343;BME280;49465;57.664;39.686;2023-02-21T14:17:18;98584.78;;;-3.92;47.16
63343;BME280;49465;57.664;39.686;2023-02-21T14:19:56;98593.81;;;-4.08;46.88
63343;BME280;49465;57.664;39.686;2023-02-21T14:22:29;98590.31;;;-4.06;46.84
63343;BME280;49465;57.664;39.686;2023-02-21T14:25:24;98596.84;;;-3.95;46.78
63343;BME280;49465;57.664;39.686;2023-02-21T14:27:54;98607.03;;;-3.94;46.51
63343;BME280;49465;57.664;39.686;2023-02-21T14:30:27;98606.09;;;-3.91;46.24
63343;BME280;49465;57.664;39.686;2023-02-21T14:32:59;98605.69;;;-4.06;46.35
63343;BME280;49465;57.664;39.686;2023-02-21T14:35:41;98613.81;;;-3.93;46.25
63343;BME280;49465;57.664;39.686;2023-02-21T14:38:23;98624.69;;;-3.86;45.92
63343;BME280;49465;57.664;39.686;2023-02-21T14:52:39;98644.84;;;-4.30;46.18
63343;BME280;49465;57.664;39.686;2023-02-21T14:58:13;98647.75;;;-4.72;46.46
63343;BME280;49465;57.664;39.686;2023-02-21T15:04:30;98659.03;;;-4.78;46.45
63343;BME280;49465;57.664;39.686;2023-02-21T15:09:37;98679.19;;;-4.67;45.96
63343;BME280;49465;57.664;39.686;2023-02-21T15:12:09;98687.09;;;-4.77;46.17
63343;BME280;49465;57.664;39.686;2023-02-21T15:14:49;98683.25;;;-4.60;45.76
63343;BME280;49465;57.664;39.686;2023-02-21T15:17:24;98686.94;;;-4.70;45.73
63343;BME280;49465;57.664;39.686;2023-02-21T15:20:15;98690.56;;;-5.10;46.33
63343;BME280;49465;57.664;39.686;2023-02-21T15:22:42;98695.69;;;-5.10;46.32
63343;BME280;49465;57.664;39.686;2023-02-21T15:30:32;98708.00;;;-5.25;46.13
63343;BME280;49465;57.664;39.686;2023-02-21T15:35:47;98720.13;;;-5.33;45.99
63343;BME280;49465;57.664;39.686;2023-02-21T15:41:37;98725.09;;;-5.28;46.22
63343;BME280;49465;57.664;39.686;2023-02-21T15:44:10;98728.66;;;-5.34;45.86
63343;BME280;49465;57.664;39.686;2023-02-21T15:47:00;98736.53;;;-5.43;46.01
63343;BME280;49465;57.664;39.686;2023-02-21T15:49:44;98747.50;;;-5.38;45.86
63343;BME280;49465;57.664;39.686;2023-02-21T15:52:38;98742.94;;;-5.63;46.27
63343;BME280;49465;57.664;39.686;2023-02-21T15:58:24;98762.53;;;-5.62;46.08
63343;BME280;49465;57.664;39.686;2023-02-21T16:01:07;98768.13;;;-5.47;45.67
63343;BME280;49465;57.664;39.686;2023-02-21T16:03:37;98768.31;;;-5.55;45.55